createdAt,value
2023-01-19T00:00:13.076Z,99089.69
2023-01-19T00:02:39.810Z,99084.59
2023-01-19T00:05:07.049Z,99089.69
2023-01-19T00:07:33.978Z,99096.50
2023-01-19T00:10:00.558Z,99087.13
2023-01-19T00:12:27.271Z,99089.63
2023-01-19T00:14:53.827Z,99090.41
2023-01-19T00:17:20.374Z,99091.16
2023-01-19T00:19:47.161Z,99094.47
2023-01-19T00:22:13.723Z,99107.19
2023-01-19T00:24:40.389Z,99102.84
2023-01-19T00:27:06.961Z,99095.97
2023-01-19T00:29:34.372Z,99098.47
2023-01-19T00:32:01.918Z,99097.56
2023-01-19T00:34:36.780Z,99099.13
2023-01-19T00:37:04.342Z,99094.75
2023-01-19T00:39:30.900Z,99104.78
2023-01-19T00:42:17.367Z,99105.63
2023-01-19T00:44:44.049Z,99100.47
2023-01-19T00:47:10.657Z,99108.91
2023-01-19T00:49:37.331Z,99100.38
2023-01-19T00:52:04.282Z,99110.53
2023-01-19T00:54:30.854Z,99114.75
2023-01-19T00:56:57.434Z,99110.47
2023-01-19T00:59:25.812Z,99106.19
2023-01-19T01:01:52.548Z,99104.53
2023-01-19T01:04:19.155Z,99107.03
2023-01-19T01:06:45.766Z,99103.66
2023-01-19T01:09:12.380Z,99095.13
2023-01-19T01:11:40.259Z,99093.41
2023-01-19T01:14:07.811Z,99100.13
2023-01-19T01:16:34.458Z,99089.88
2023-01-19T01:19:01.121Z,99099.13
2023-01-19T01:21:27.788Z,99094.00
2023-01-19T01:23:54.519Z,99095.63
2023-01-19T01:26:21.145Z,99099.78
2023-01-19T01:28:47.673Z,99099.72
2023-01-19T01:31:14.454Z,99091.13
2023-01-19T01:33:41.881Z,99097.84
2023-01-19T01:36:09.882Z,99097.78
2023-01-19T01:38:36.530Z,99106.22
2023-01-19T01:41:03.414Z,99118.88
2023-01-19T01:43:49.347Z,99120.56
2023-01-19T01:46:18.072Z,99109.50
2023-01-19T01:48:50.299Z,99119.66
2023-01-19T01:51:29.658Z,99117.03
2023-01-19T01:54:06.825Z,99119.56
2023-01-19T01:56:36.079Z,99127.94
2023-01-19T01:59:07.628Z,99126.22
2023-01-19T02:01:54.671Z,99125.28
2023-01-19T02:04:23.123Z,99126.13
2023-01-19T02:07:10.199Z,99130.34
2023-01-19T02:09:57.615Z,99131.13
2023-01-19T02:12:44.801Z,99131.13
2023-01-19T02:15:16.712Z,99128.47
2023-01-19T02:17:43.479Z,99122.50
2023-01-19T02:20:10.981Z,99123.31
2023-01-19T02:22:47.385Z,99131.75
2023-01-19T02:25:15.014Z,99125.78
2023-01-19T02:27:42.549Z,99119.00
2023-01-19T02:30:10.902Z,99113.84
2023-01-19T02:32:37.666Z,99118.84
2023-01-19T02:35:04.657Z,99116.25
2023-01-19T02:37:37.537Z,99112.78
2023-01-19T02:40:10.361Z,99115.22
2023-01-19T02:42:43.973Z,99115.16
2023-01-19T02:45:14.499Z,99111.69
2023-01-19T02:47:45.842Z,99114.19
2023-01-19T02:50:38.330Z,99102.22
2023-01-19T02:53:17.673Z,99104.72
2023-01-19T02:55:54.023Z,99101.28
2023-01-19T02:58:33.853Z,99107.16
2023-01-19T03:03:52.521Z,99109.59
2023-01-19T03:06:33.516Z,99116.38
2023-01-19T03:09:13.247Z,99115.41
2023-01-19T03:11:43.514Z,99119.63
2023-01-19T03:14:18.175Z,99115.38
2023-01-19T03:16:51.301Z,99114.50
2023-01-19T03:22:02.568Z,99116.13
2023-01-19T03:24:36.905Z,99117.81
2023-01-19T03:27:12.231Z,99111.88
2023-01-19T03:29:42.241Z,99105.13
2023-01-19T03:32:15.415Z,99115.28
2023-01-19T03:34:43.908Z,99117.81
2023-01-19T03:37:13.478Z,99118.66
2023-01-19T03:39:40.312Z,99116.94
2023-01-19T03:42:12.968Z,99120.38
2023-01-19T03:44:42.061Z,99117.88
2023-01-19T03:47:11.300Z,99112.84
2023-01-19T03:49:41.685Z,99113.63
2023-01-19T03:52:08.548Z,99113.69
2023-01-19T03:54:35.146Z,99112.84
2023-01-19T03:57:01.746Z,99118.88
2023-01-19T03:59:28.290Z,99117.16
2023-01-19T04:01:55.041Z,99122.22
2023-01-19T04:04:21.749Z,99116.22
2023-01-19T04:06:48.329Z,99112.84
2023-01-19T04:09:14.910Z,99099.25
2023-01-19T04:11:41.477Z,99108.59
2023-01-19T04:14:08.066Z,99108.56
2023-01-19T04:16:34.640Z,99110.31
2023-01-19T04:19:01.210Z,99112.84
2023-01-19T04:21:27.739Z,99114.59
2023-01-19T04:23:54.637Z,99107.78
2023-01-19T04:26:21.369Z,99112.03
2023-01-19T04:28:47.991Z,99111.16
2023-01-19T04:31:14.701Z,99107.78
2023-01-19T04:33:41.340Z,99111.16
2023-01-19T04:36:08.580Z,99106.06
2023-01-19T04:38:35.409Z,99103.53
2023-01-19T04:41:01.963Z,99109.44
2023-01-19T04:43:28.543Z,99100.97
2023-01-19T04:45:55.400Z,99107.78
2023-01-19T04:48:22.046Z,99109.53
2023-01-19T04:50:51.694Z,99109.53
2023-01-19T04:53:18.549Z,99108.66
2023-01-19T04:55:45.398Z,99102.69
2023-01-19T04:58:12.070Z,99105.22
2023-01-19T05:00:38.602Z,99095.06
2023-01-19T05:03:05.851Z,99088.31
2023-01-19T05:05:33.245Z,99099.38
2023-01-19T05:08:00.619Z,99096.00
2023-01-19T05:10:27.177Z,99091.69
2023-01-19T05:12:53.750Z,99094.19
2023-01-19T05:15:20.303Z,99089.06
2023-01-19T05:17:46.919Z,99094.97
2023-01-19T05:20:16.037Z,99098.28
2023-01-19T05:22:43.577Z,99099.06
2023-01-19T05:25:10.125Z,99097.34
2023-01-19T05:27:37.615Z,99101.50
2023-01-19T05:30:05.635Z,99106.47
2023-01-19T05:32:32.309Z,99102.16
2023-01-19T05:34:59.034Z,99102.06
2023-01-19T05:37:25.618Z,99093.53
2023-01-19T05:39:52.778Z,99097.75
2023-01-19T05:42:19.351Z,99096.00
2023-01-19T05:44:45.918Z,99090.88
2023-01-19T05:47:12.510Z,99090.00
2023-01-19T05:49:39.143Z,99089.94
2023-01-19T05:52:05.706Z,99091.59
2023-01-19T05:54:32.294Z,99086.53
2023-01-19T05:56:59.103Z,99091.59
2023-01-19T05:59:25.779Z,99094.97
2023-01-19T06:01:53.078Z,99100.91
2023-01-19T06:04:20.794Z,99103.50
2023-01-19T06:06:48.738Z,99099.22
2023-01-19T06:09:15.347Z,99100.88
2023-01-19T06:11:42.020Z,99100.88
2023-01-19T06:14:10.802Z,99103.41
2023-01-19T06:16:37.752Z,99102.53
2023-01-19T06:19:04.604Z,99111.84
2023-01-19T06:21:31.560Z,99111.84
2023-01-19T06:23:58.853Z,99105.94
2023-01-19T06:26:26.216Z,99105.13
2023-01-19T06:28:53.107Z,99112.75
2023-01-19T06:31:19.747Z,99108.44
2023-01-19T06:33:46.916Z,99113.56
2023-01-19T06:36:13.672Z,99116.94
2023-01-19T06:38:40.359Z,99119.47
2023-01-19T06:41:06.916Z,99122.00
2023-01-19T06:43:33.563Z,99123.69
2023-01-19T06:46:00.735Z,99124.53
2023-01-19T06:48:27.440Z,99123.72
2023-01-19T06:50:54.032Z,99119.47
2023-01-19T06:53:22.286Z,99119.47
2023-01-19T06:55:48.991Z,99121.19
2023-01-19T06:58:15.784Z,99121.13
2023-01-19T07:00:43.109Z,99120.25
2023-01-19T07:03:19.302Z,99118.53
2023-01-19T07:05:45.911Z,99119.41
2023-01-19T07:08:13.009Z,99118.53
2023-01-19T07:11:26.869Z,99130.41
2023-01-19T07:13:26.102Z,99124.50
2023-01-19T07:15:52.873Z,99122.81
2023-01-19T07:18:19.398Z,99135.50
2023-01-19T07:20:46.925Z,99137.19
2023-01-19T07:23:13.574Z,99130.41
2023-01-19T07:25:40.178Z,99138.97
2023-01-19T07:28:07.094Z,99140.69
2023-01-19T07:30:33.688Z,99139.81
2023-01-19T07:33:00.672Z,99132.25
2023-01-19T07:35:29.708Z,99136.47
2023-01-19T07:37:56.262Z,99136.47
2023-01-19T07:40:24.119Z,99146.69
2023-01-19T07:42:52.111Z,99149.22
2023-01-19T07:45:21.403Z,99149.22
2023-01-19T07:47:48.993Z,99152.66
2023-01-19T07:50:17.120Z,99154.38
2023-01-19T07:52:44.784Z,99155.25
2023-01-19T07:55:11.427Z,99149.28
2023-01-19T07:57:38.029Z,99151.88
2023-01-19T08:00:05.144Z,99157.84
2023-01-19T08:02:34.034Z,99149.41
2023-01-19T08:05:00.605Z,99157.06
2023-01-19T08:07:27.201Z,99146.13
2023-01-19T08:09:53.916Z,99146.13
2023-01-19T08:12:20.513Z,99153.88
2023-01-19T08:14:47.060Z,99152.19
2023-01-19T08:17:14.110Z,99160.66
2023-01-19T08:19:42.198Z,99161.59
2023-01-19T08:22:08.871Z,99164.19
2023-01-19T08:24:35.463Z,99167.81
2023-01-19T08:27:03.615Z,99165.69
2023-01-19T08:29:31.975Z,99168.69
2023-01-19T08:32:00.218Z,99162.44
2023-01-19T08:34:27.224Z,99162.31
2023-01-19T08:36:54.282Z,99172.41
2023-01-19T08:39:20.898Z,99172.28
2023-01-19T08:41:48.675Z,99171.56
2023-01-19T08:44:16.040Z,99171.00
2023-01-19T08:46:42.668Z,99174.50
2023-01-19T08:49:09.416Z,99167.78
2023-01-19T08:51:36.022Z,99172.16
2023-01-19T08:54:02.663Z,99168.69
2023-01-19T08:56:29.276Z,99171.03
2023-01-19T08:59:08.137Z,99168.34
2023-01-19T09:01:35.087Z,99169.84
2023-01-19T09:04:02.199Z,99169.41
2023-01-19T09:06:29.191Z,99179.03
2023-01-19T09:08:55.734Z,99175.59
2023-01-19T09:11:22.334Z,99182.31
2023-01-19T09:13:49.013Z,99182.03
2023-01-19T09:16:15.974Z,99191.19
2023-01-19T09:18:42.910Z,99191.94
2023-01-19T09:21:09.484Z,99190.81
2023-01-19T09:23:36.217Z,99188.72
2023-01-19T09:26:04.743Z,99193.19
2023-01-19T09:28:32.099Z,99205.53
2023-01-19T09:30:58.819Z,99204.13
2023-01-19T09:33:25.441Z,99198.97
2023-01-19T09:35:52.199Z,99201.34
2023-01-19T09:38:19.830Z,99196.75
2023-01-19T09:46:41.624Z,99203.13
2023-01-19T09:49:20.019Z,99203.19
2023-01-19T09:51:48.936Z,99199.78
2023-01-19T09:54:27.305Z,99213.63
2023-01-19T09:56:55.261Z,99213.81
2023-01-19T09:59:26.125Z,99207.75
2023-01-19T10:09:56.764Z,99221.38
2023-01-19T10:12:35.773Z,99218.81
2023-01-19T10:15:22.074Z,99219.75
2023-01-19T10:21:05.597Z,99215.09
2023-01-19T10:23:38.560Z,99216.81
2023-01-19T10:26:15.943Z,99221.13
2023-01-19T10:28:45.464Z,99223.19
2023-01-19T10:31:12.538Z,99218.78
2023-01-19T10:33:39.412Z,99212.69
2023-01-19T10:36:16.707Z,99218.25
2023-01-19T10:38:43.755Z,99209.88
2023-01-19T10:41:17.833Z,99213.13
2023-01-19T10:43:47.357Z,99218.66
2023-01-19T10:46:33.516Z,99221.69
2023-01-19T10:49:00.497Z,99225.06
2023-01-19T10:51:27.269Z,99225.16
2023-01-19T10:53:58.152Z,99223.06
2023-01-19T10:56:29.808Z,99214.34
2023-01-19T10:58:57.475Z,99224.78
2023-01-19T11:01:27.135Z,99217.66
2023-01-19T11:03:55.594Z,99218.94
2023-01-19T11:06:28.179Z,99221.72
2023-01-19T11:09:12.081Z,99220.13
2023-01-19T11:11:45.281Z,99218.94
2023-01-19T11:14:14.999Z,99213.44
2023-01-19T11:16:47.354Z,99220.75
2023-01-19T11:19:20.771Z,99227.94
2023-01-19T11:21:48.587Z,99221.28
2023-01-19T11:24:16.752Z,99217.22
2023-01-19T11:29:25.630Z,99220.97
2023-01-19T11:31:54.277Z,99227.03
2023-01-19T11:34:38.707Z,99219.34
2023-01-19T11:37:27.464Z,99217.63
2023-01-19T11:39:57.932Z,99218.47
2023-01-19T11:42:26.313Z,99216.72
2023-01-19T11:47:38.413Z,99213.19
2023-01-19T11:50:14.535Z,99204.66
2023-01-19T11:57:55.549Z,99214.03
2023-01-19T12:06:11.117Z,99227.41
2023-01-19T12:08:43.946Z,99225.72
2023-01-19T12:11:16.533Z,99219.72
2023-01-19T12:13:44.967Z,99215.50
2023-01-19T12:16:30.890Z,99217.97
2023-01-19T12:19:06.711Z,99207.69
2023-01-19T12:21:33.380Z,99207.63
2023-01-19T12:24:13.764Z,99211.84
2023-01-19T12:27:00.452Z,99210.88
2023-01-19T12:29:31.404Z,99212.59
2023-01-19T12:34:52.094Z,99210.81
2023-01-19T12:37:38.913Z,99215.00
2023-01-19T12:40:32.382Z,99215.75
2023-01-19T12:43:05.230Z,99218.34
2023-01-19T12:45:35.480Z,99210.59
2023-01-19T12:48:04.067Z,99211.44
2023-01-19T12:50:38.315Z,99213.97
2023-01-19T12:53:16.829Z,99214.72
2023-01-19T12:55:46.908Z,99224.16
2023-01-19T12:58:18.814Z,99232.75
2023-01-19T13:00:48.513Z,99227.66
2023-01-19T13:05:56.132Z,99223.34
2023-01-19T13:08:26.731Z,99207.91
2023-01-19T13:13:33.441Z,99210.38
2023-01-19T13:19:21.191Z,99214.63
2023-01-19T13:21:48.732Z,99217.16
2023-01-19T13:24:19.756Z,99226.56
2023-01-19T13:32:21.169Z,99225.69
2023-01-19T13:34:54.678Z,99223.97
2023-01-19T13:37:24.152Z,99223.13
2023-01-19T13:39:54.128Z,99220.53
2023-01-19T13:42:34.261Z,99213.59
2023-01-19T13:45:07.167Z,99220.38
2023-01-19T13:47:42.410Z,99225.47
2023-01-19T13:50:20.193Z,99225.47
2023-01-19T13:52:48.888Z,99231.41
2023-01-19T13:55:16.422Z,99237.34
2023-01-19T13:57:46.129Z,99228.72
2023-01-19T14:05:43.345Z,99230.28
2023-01-19T14:13:26.460Z,99239.59
2023-01-19T14:15:57.639Z,99242.09
2023-01-19T14:18:33.214Z,99242.88
2023-01-19T14:29:33.507Z,99261.72
2023-01-19T14:37:49.088Z,99272.03
2023-01-19T14:43:13.316Z,99273.63
2023-01-19T14:45:41.524Z,99276.03
2023-01-19T14:48:19.583Z,99286.16
2023-01-19T14:51:02.407Z,99289.63
2023-01-19T14:53:36.668Z,99294.72
2023-01-19T14:56:05.791Z,99298.97
2023-01-19T14:58:34.581Z,99304.81
2023-01-19T15:01:01.916Z,99305.63
2023-01-19T15:03:43.690Z,99303.78
2023-01-19T15:06:15.690Z,99307.94
2023-01-19T15:08:43.934Z,99302.84
2023-01-19T15:14:13.780Z,99309.59
2023-01-19T15:16:41.126Z,99315.47
2023-01-19T15:19:17.056Z,99314.56
2023-01-19T15:21:46.521Z,99312.81
2023-01-19T15:24:15.848Z,99323.03
2023-01-19T15:26:43.961Z,99321.25
2023-01-19T15:29:26.821Z,99321.19
2023-01-19T15:31:53.562Z,99323.69
2023-01-19T15:34:20.355Z,99324.53
2023-01-19T15:36:47.040Z,99324.47
2023-01-19T15:39:13.621Z,99331.22
2023-01-19T15:41:40.508Z,99336.31
2023-01-19T15:44:10.162Z,99340.50
2023-01-19T15:46:37.109Z,99342.97
2023-01-19T15:49:05.839Z,99349.75
2023-01-19T15:51:33.189Z,99350.50
2023-01-19T15:53:59.785Z,99354.69
2023-01-19T15:56:29.192Z,99364.00
2023-01-19T15:58:56.255Z,99369.00
2023-01-19T16:01:31.617Z,99362.94
2023-01-19T16:04:00.609Z,99358.59
2023-01-19T16:06:27.543Z,99366.22
2023-01-19T16:08:59.718Z,99359.31
2023-01-19T16:11:27.819Z,99363.50
2023-01-19T16:13:54.839Z,99358.34
2023-01-19T16:16:23.621Z,99369.34
2023-01-19T16:18:51.512Z,99370.13
2023-01-19T16:21:18.086Z,99376.88
2023-01-19T16:23:44.647Z,99377.66
2023-01-19T16:26:35.598Z,99376.63
2023-01-19T16:29:10.706Z,99380.81
2023-01-19T16:31:39.091Z,99385.81
2023-01-19T16:34:05.857Z,99390.78
2023-01-19T16:36:34.258Z,99401.75
2023-01-19T16:39:04.226Z,99400.78
2023-01-19T16:41:31.167Z,99408.34
2023-01-19T16:43:58.392Z,99408.22
2023-01-19T16:46:30.160Z,99407.28
2023-01-19T16:49:02.543Z,99403.78
2023-01-19T16:51:29.332Z,99410.47
2023-01-19T16:53:55.918Z,99415.50
2023-01-19T16:56:22.450Z,99418.81
2023-01-19T16:58:53.475Z,99417.84
2023-01-19T17:01:20.486Z,99428.81
2023-01-19T17:03:47.422Z,99424.50
2023-01-19T17:06:18.083Z,99437.13
2023-01-19T17:08:44.703Z,99437.13
2023-01-19T17:11:14.074Z,99438.84
2023-01-19T17:13:40.656Z,99433.75
2023-01-19T17:16:07.919Z,99446.53
2023-01-19T17:18:36.014Z,99449.03
2023-01-19T17:21:04.972Z,99449.03
2023-01-19T17:23:32.758Z,99462.63
2023-01-19T17:26:00.035Z,99455.72
2023-01-19T17:28:26.839Z,99465.84
2023-01-19T17:30:53.841Z,99464.13
2023-01-19T17:33:22.281Z,99464.88
2023-01-19T17:35:49.251Z,99474.16
2023-01-19T17:38:16.721Z,99475.81
2023-01-19T17:40:43.352Z,99472.34
2023-01-19T17:43:09.933Z,99484.22
2023-01-19T17:45:37.321Z,99482.47
2023-01-19T17:48:04.995Z,99487.50
2023-01-19T17:50:34.646Z,99491.72
2023-01-19T17:53:01.389Z,99487.41
2023-01-19T17:55:27.991Z,99489.03
2023-01-19T17:57:54.572Z,99490.63
2023-01-19T18:00:21.385Z,99491.44
2023-01-19T18:02:50.792Z,99487.94
2023-01-19T18:05:18.580Z,99499.78
2023-01-19T18:07:45.674Z,99498.81
2023-01-19T18:10:12.997Z,99502.19
2023-01-19T18:12:39.724Z,99503.81
2023-01-19T18:15:07.748Z,99508.88
2023-01-19T18:17:38.584Z,99513.94
2023-01-19T18:20:05.726Z,99508.81
2023-01-19T18:22:32.290Z,99509.56
2023-01-19T18:24:59.305Z,99515.47
2023-01-19T18:27:25.925Z,99519.69
2023-01-19T18:29:55.664Z,99517.97
2023-01-19T18:32:27.148Z,99520.47
2023-01-19T18:34:54.078Z,99534.16
2023-01-19T18:37:22.100Z,99531.59
2023-01-19T18:39:48.664Z,99529.88
2023-01-19T18:42:15.224Z,99540.88
2023-01-19T18:44:41.771Z,99540.81
2023-01-19T18:47:08.362Z,99531.47
2023-01-19T18:49:37.606Z,99533.97
2023-01-19T18:52:04.405Z,99534.84
2023-01-19T18:54:31.076Z,99549.25
2023-01-19T18:56:58.398Z,99544.94
2023-01-19T18:59:25.552Z,99546.53
2023-01-19T19:01:52.241Z,99545.66
2023-01-19T19:04:18.883Z,99549.00
2023-01-19T19:06:45.427Z,99547.25
2023-01-19T19:09:11.955Z,99551.38
2023-01-19T19:11:38.517Z,99548.00
2023-01-19T19:14:06.134Z,99546.19
2023-01-19T19:16:35.404Z,99553.78
2023-01-19T19:19:02.774Z,99557.16
2023-01-19T19:21:29.389Z,99557.16
2023-01-19T19:23:57.893Z,99551.16
2023-01-19T19:26:26.239Z,99557.94
2023-01-19T19:28:52.880Z,99552.75
2023-01-19T19:31:22.142Z,99551.03
2023-01-19T19:33:50.845Z,99549.31
2023-01-19T19:36:17.963Z,99550.97
2023-01-19T19:38:46.427Z,99555.19
2023-01-19T19:41:15.920Z,99551.78
2023-01-19T19:43:43.120Z,99553.41
2023-01-19T19:46:12.113Z,99549.09
2023-01-19T19:48:39.547Z,99550.81
2023-01-19T19:53:59.390Z,99556.84
2023-01-19T19:56:28.994Z,99552.63
2023-01-19T19:58:57.518Z,99555.16
2023-01-19T20:01:32.047Z,99559.38
2023-01-19T20:04:06.800Z,99557.66
2023-01-19T20:06:38.620Z,99560.25
2023-01-19T20:09:07.092Z,99559.38
2023-01-19T20:11:33.695Z,99568.81
2023-01-19T20:14:01.092Z,99562.09
2023-01-19T20:16:27.808Z,99565.53
2023-01-19T20:18:54.978Z,99577.44
2023-01-19T20:21:24.297Z,99572.34
2023-01-19T20:23:53.001Z,99572.34
2023-01-19T20:26:22.824Z,99572.31
2023-01-19T20:28:49.454Z,99585.91
2023-01-19T20:31:19.421Z,99584.19
2023-01-19T20:33:48.455Z,99596.00
2023-01-19T20:36:15.403Z,99595.16
2023-01-19T20:38:42.794Z,99598.50
2023-01-19T20:41:11.883Z,99600.16
2023-01-19T20:43:39.197Z,99602.75
2023-01-19T20:46:06.799Z,99609.41
2023-01-19T20:48:33.628Z,99612.94
2023-01-19T20:51:02.926Z,99611.22
2023-01-19T20:53:29.796Z,99606.00
2023-01-19T20:55:56.650Z,99606.91
2023-01-19T20:58:23.805Z,99613.72
2023-01-19T21:00:50.860Z,99612.81
2023-01-19T21:03:17.510Z,99615.38
2023-01-19T21:05:48.836Z,99622.19
2023-01-19T21:08:15.705Z,99625.72
2023-01-19T21:10:46.118Z,99626.56
2023-01-19T21:13:12.703Z,99624.94
2023-01-19T21:15:39.230Z,99624.94
2023-01-19T21:18:06.004Z,99617.31
2023-01-19T21:20:33.131Z,99617.31
2023-01-19T21:22:59.733Z,99618.22
2023-01-19T21:25:26.308Z,99623.41
2023-01-19T21:27:53.366Z,99617.34
2023-01-19T21:30:20.430Z,99623.31
2023-01-19T21:32:46.976Z,99618.22
2023-01-19T21:35:14.145Z,99612.22
2023-01-19T21:37:41.054Z,99624.84
2023-01-19T21:40:08.140Z,99620.69
2023-01-19T21:42:35.023Z,99624.06
2023-01-19T21:45:01.646Z,99624.94
2023-01-19T21:47:28.190Z,99621.28
2023-01-19T21:49:54.985Z,99626.38
2023-01-19T21:52:21.559Z,99640.03
2023-01-19T21:54:48.145Z,99631.47
2023-01-19T21:57:15.271Z,99638.19
2023-01-19T21:59:41.791Z,99644.13
2023-01-19T22:02:12.547Z,99650.22
2023-01-19T22:04:39.554Z,99653.03
2023-01-19T22:07:06.886Z,99660.78
2023-01-19T22:09:35.019Z,99653.25
2023-01-19T22:12:02.296Z,99660.44
2023-01-19T22:14:29.137Z,99662.38
2023-01-19T22:16:55.747Z,99661.81
2023-01-19T22:19:22.895Z,99660.25
2023-01-19T22:21:49.595Z,99679.09
2023-01-19T22:24:16.161Z,99680.16
2023-01-19T22:26:43.035Z,99676.81
2023-01-19T22:29:12.013Z,99688.81
2023-01-19T22:31:39.524Z,99688.81
2023-01-19T22:34:10.888Z,99688.81
2023-01-19T22:36:37.999Z,99693.03
2023-01-19T22:39:10.823Z,99696.41
2023-01-19T22:41:41.353Z,99687.09
2023-01-19T22:44:14.327Z,99696.41
2023-01-19T22:46:41.448Z,99709.06
2023-01-19T22:49:09.154Z,99713.28
2023-01-19T22:51:36.364Z,99712.25
2023-01-19T22:54:03.007Z,99713.97
2023-01-19T22:56:32.405Z,99719.88
2023-01-19T22:58:59.865Z,99721.53
2023-01-19T23:01:30.311Z,99719.78
2023-01-19T23:03:57.393Z,99727.38
2023-01-19T23:06:28.250Z,99739.28
2023-01-19T23:08:56.490Z,99738.34
2023-01-19T23:11:25.656Z,99741.72
2023-01-19T23:13:52.513Z,99738.28
2023-01-19T23:16:19.558Z,99736.53
2023-01-19T23:18:47.021Z,99735.63
2023-01-19T23:24:04.453Z,99747.50
2023-01-19T23:26:34.154Z,99738.06
2023-01-19T23:29:02.122Z,99747.34
2023-01-19T23:31:31.416Z,99744.72
2023-01-19T23:34:01.552Z,99731.97
2023-01-19T23:36:30.240Z,99736.97
2023-01-19T23:38:59.599Z,99744.50
2023-01-19T23:41:28.725Z,99746.94
2023-01-19T23:43:55.465Z,99746.09
2023-01-19T23:46:22.563Z,99749.47
2023-01-19T23:48:49.668Z,99748.56
2023-01-19T23:51:19.586Z,99746.03
2023-01-19T23:53:46.935Z,99745.16
2023-01-19T23:56:17.547Z,99738.28
2023-01-19T23:58:44.828Z,99750.91
